Eden, UT (84310)

3:14 AM MST on December 07, 2016 (GMT -0700)
Eagle Ridge | | Change Station

Elev 5115 ft 41.32 °N, 111.84 °W | Updated 24 seconds ago

Overcast
Overcast
10.6 °F
Feels Like 11 °F
N
2.2
Wind Variable Wind from ESE

Today
High -- | Low -- °F
--% Chance of Precip.
Yesterday
High -- | Low -- °F
Precip. -- in
Pressure 30.14 in
Visibility 10.0 miles
Clouds Overcast 4500 ft
Windchill 11 °F
Dew Point 8 °F
Humidity 89%
Rainfall 0.00 in
Snow Depth Not available.
7:40 AM 4:58 PM
Waxing Crescent, 51% visible
METAR KOGD 070953Z AUTO 01005KT 10SM OVC045 M06/M11 A3006 RMK AO2 SLP204 T10561111
Pressure 30.14 in
Visibility 10.0 miles
Clouds Overcast 4500 ft
Windchill 11 °F
Dew Point 8 °F
Humidity 89%
Rainfall 0.00 in
Snow Depth Not available.
7:40 AM 4:58 PM
Waxing Crescent, 51% visible
METAR KOGD 070953Z AUTO 01005KT 10SM OVC045 M06/M11 A3006 RMK AO2 SLP204 T10561111

10-Day Weather Forecast

Almanac

Astronomy

Dec. 07, 2016 Rise Set
Actual Time
Civil Twilight
Nautical Twilight
Astronomical Twilight
Moon
Length of Visible Light
Length of Day
Tomorrow will be .
, % of the Moon is Illuminated

Today's Extremes

State Highs State Lows

Community

WunderPhotos

Upload Photos

1,956,111 photos uploaded!

WunderBlog® & News

Nearby

Air Quality

  Air Quality AQ Index Pollutant
Not available.

Snow Depth

Station Depth Elevation

Earthquake Activity

City Distance Mag. Time & Date
Minimum magnitude displayed is 2.5.

Coastal Water Temperatures

Place Temperature

Stations

Nearby Weather Stations

Station Location Temp. Windchill Dew Point Humidity Wind Precip. Elev Updated Type
                   

Watches & Warnings

There are currently no watches in effect.